Time;durP1;ratioP1;P1;durP2;ratioP2;P2;SDS_P1;SDS_P2;PMS_P1;PMS_P2;Temp;Humidity;BMP_temperature;BMP_pressure;BME280_temperature;BME280_humidity;BME280_pressure;Samples;Min_cycle;Max_cycle;Signal;HPM_P1;HPM_P2
2021/09/11 00:00:03;;;;;;;;;;;;;;;23.08;74.22;101194.56;7288657;19;152794;-52
2021/09/11 00:02:30;;;;;;;;;;;;;;;23.07;74.42;101190.91;7275903;19;151829;-52
2021/09/11 00:04:58;;;;;;;;;;;;;;;23.08;74.25;101189.72;7283798;19;153647;-52
2021/09/11 00:07:25;;;;;;;;;;;;;;;23.11;74.34;101205.19;7281362;19;153530;-51
2021/09/11 00:09:52;;;;;;;;;;;;;;;23.12;74.19;101204.03;7283334;19;152311;-52
2021/09/11 00:12:19;;;;;;;;;;;;;;;23.12;74.16;101201.22;7282932;19;153745;-52
2021/09/11 00:14:47;;;;;;;;;;;;;;;23.15;74.28;101200.56;7280648;19;153501;-52
2021/09/11 00:17:16;;;;;;;;;;;;;;;23.12;74.16;101204.88;7280842;19;151514;-52
2021/09/11 00:19:44;;;;;;;;;;;;;;;23.17;74.67;101201.09;7286246;19;152148;-52
2021/09/11 00:22:11;;;;;;;;;;;;;;;23.14;74.49;101204.53;7293545;19;154130;-52
2021/09/11 00:24:38;;;;;;;;;;;;;;;23.13;74.52;101206.50;7289778;19;153741;-51
2021/09/11 00:27:05;;;;;;;;;;;;;;;23.13;74.39;101203.69;7285968;19;154026;-52
2021/09/11 00:29:37;;;;;;;;;;;;;;;23.16;74.68;101199.41;7287993;19;151978;-51
2021/09/11 00:32:05;;;;;;;;;;;;;;;23.14;74.45;101207.34;7284938;19;152770;-52
2021/09/11 00:34:32;;;;;;;;;;;;;;;23.13;75.16;101200.88;7286437;19;154135;-51
2021/09/11 00:37:00;;;;;;;;;;;;;;;23.14;75.01;101202.53;7286325;19;152230;-52
2021/09/11 00:39:27;;;;;;;;;;;;;;;23.15;74.75;101197.75;7289374;19;153343;-52
2021/09/11 00:41:54;;;;;;;;;;;;;;;23.16;74.71;101196.59;7286097;19;154116;-52
2021/09/11 00:44:21;;;;;;;;;;;;;;;23.18;74.74;101202.72;7291967;19;151687;-51
2021/09/11 00:46:48;;;;;;;;;;;;;;;23.19;75.11;101195.94;7287214;19;154082;-52
2021/09/11 00:49:16;;;;;;;;;;;;;;;23.18;74.57;101202.72;7287603;19;152236;-51
2021/09/11 00:51:44;;;;;;;;;;;;;;;23.18;74.63;101200.75;7287489;19;153599;-51
2021/09/11 00:54:11;;;;;;;;;;;;;;;23.23;74.55;101208.25;7285390;19;154340;-52
2021/09/11 00:56:39;;;;;;;;;;;;;;;23.21;74.54;101205.75;7286596;19;153042;-51
2021/09/11 00:59:06;;;;;;;;;;;;;;;23.20;75.07;101195.63;7286869;19;153234;-52
2021/09/11 01:01:34;;;;;;;;;;;;;;;23.23;74.68;101211.91;7284375;19;152360;-52
2021/09/11 01:04:01;;;;;;;;;;;;;;;23.22;74.81;101217.84;7290767;19;152020;-52
2021/09/11 01:06:29;;;;;;;;;;;;;;;23.19;74.54;101208.06;7284438;19;153401;-51
2021/09/11 01:08:56;;;;;;;;;;;;;;;23.19;74.85;101210.03;7283628;19;151879;-52
2021/09/11 01:11:25;;;;;;;;;;;;;;;23.19;74.94;101222.16;7286009;19;152931;-51
2021/09/11 01:13:56;;;;;;;;;;;;;;;23.19;74.67;101221.31;7284163;19;152836;-52
2021/09/11 01:16:25;;;;;;;;;;;;;;;23.20;75.20;101223.81;7284602;19;151877;-52
2021/09/11 01:18:52;;;;;;;;;;;;;;;23.22;74.87;101215.03;7286188;19;153902;-51
2021/09/11 01:21:20;;;;;;;;;;;;;;;23.23;74.95;101217.53;7281918;19;154502;-52
2021/09/11 01:23:47;;;;;;;;;;;;;;;23.21;75.01;101219.03;7285578;19;155333;-51
2021/09/11 01:26:18;;;;;;;;;;;;;;;23.23;74.67;101217.53;7293505;19;152507;-52
2021/09/11 01:28:45;;;;;;;;;;;;;;;23.22;74.94;101220.66;7285902;19;151889;-52
2021/09/11 01:31:12;;;;;;;;;;;;;;;23.25;75.07;101220.88;7284087;19;152833;-51
2021/09/11 01:33:40;;;;;;;;;;;;;;;23.23;74.94;101220.34;7283789;19;153624;-52
2021/09/11 01:36:07;;;;;;;;;;;;;;;23.25;75.04;101223.69;7287221;19;151680;-52
2021/09/11 01:38:34;;;;;;;;;;;;;;;23.24;74.97;101222.03;7286455;19;153297;-51
2021/09/11 01:41:01;;;;;;;;;;;;;;;23.24;75.00;101224.84;7282706;19;153590;-51
2021/09/11 01:43:29;;;;;;;;;;;;;;;23.23;75.46;101230.78;7279744;19;154127;-52
2021/09/11 01:45:57;;;;;;;;;;;;;;;23.24;75.02;101222.03;7284899;19;154515;-52
2021/09/11 01:48:26;;;;;;;;;;;;;;;23.25;75.38;101229.34;7293075;19;153875;-52
2021/09/11 01:50:53;;;;;;;;;;;;;;;23.28;75.57;101227.84;7284531;19;153720;-51
2021/09/11 01:53:21;;;;;;;;;;;;;;;23.26;75.96;101230.97;7281362;19;154133;-52
2021/09/11 01:55:48;;;;;;;;;;;;;;;23.25;75.72;101226.53;7285461;19;152697;-51
2021/09/11 01:58:15;;;;;;;;;;;;;;;23.26;75.96;101235.81;7281497;19;153381;-51
2021/09/11 02:00:44;;;;;;;;;;;;;;;23.30;75.86;101236.84;7281398;19;152451;-51
2021/09/11 02:03:11;;;;;;;;;;;;;;;23.30;75.75;101232.03;7281584;19;153284;-51
2021/09/11 02:05:38;;;;;;;;;;;;;;;23.32;76.27;101226.88;7279116;19;153512;-51
2021/09/11 02:08:07;;;;;;;;;;;;;;;23.33;75.72;101228.56;7283991;19;153979;-52
2021/09/11 02:10:34;;;;;;;;;;;;;;;23.31;76.03;101230.03;7291184;19;151864;-52
2021/09/11 02:13:01;;;;;;;;;;;;;;;23.34;76.37;101232.22;7283080;19;153359;-52
2021/09/11 02:15:29;;;;;;;;;;;;;;;23.33;76.53;101228.56;7283161;19;152006;-52
2021/09/11 02:17:56;;;;;;;;;;;;;;;23.34;75.95;101224.59;7282690;19;153655;-51
2021/09/11 02:20:23;;;;;;;;;;;;;;;23.37;76.95;101237.22;7283712;19;154003;-53
2021/09/11 02:22:50;;;;;;;;;;;;;;;23.38;76.37;101236.91;7283778;19;151997;-52
2021/09/11 02:25:17;;;;;;;;;;;;;;;23.36;76.65;101230.72;7284771;19;153933;-52
2021/09/11 02:27:45;;;;;;;;;;;;;;;23.38;76.31;101227.59;7285053;19;153500;-51
2021/09/11 02:30:12;;;;;;;;;;;;;;;23.37;76.46;101228.75;7284170;19;151896;-50
2021/09/11 02:32:39;;;;;;;;;;;;;;;23.37;76.27;101218.31;7291962;19;153445;-50
2021/09/11 02:35:07;;;;;;;;;;;;;;;23.37;76.85;101235.22;7285033;19;151700;-51
2021/09/11 02:37:34;;;;;;;;;;;;;;;23.38;76.49;101230.41;7283481;19;153322;-51
2021/09/11 02:40:01;;;;;;;;;;;;;;;23.38;76.34;101222.78;7285196;19;153871;-52
2021/09/11 02:42:28;;;;;;;;;;;;;;;23.38;76.27;101222.78;7283589;19;152016;-51
2021/09/11 02:44:55;;;;;;;;;;;;;;;23.37;76.13;101223.94;7285580;19;153498;-52
2021/09/11 02:47:22;;;;;;;;;;;;;;;23.39;75.82;101218.78;7281190;19;154084;-52
2021/09/11 02:49:50;;;;;;;;;;;;;;;23.39;75.82;101224.44;7284859;19;152837;-52
2021/09/11 02:52:17;;;;;;;;;;;;;;;23.38;75.51;101225.63;7284793;19;153664;-51
2021/09/11 02:54:44;;;;;;;;;;;;;;;23.39;76.00;101221.63;7286401;19;153293;-51
2021/09/11 02:57:11;;;;;;;;;;;;;;;23.40;75.62;101220.47;7280900;19;152918;-52
2021/09/11 02:59:38;;;;;;;;;;;;;;;23.39;76.01;101220.81;7284318;19;153750;-51
2021/09/11 03:02:05;;;;;;;;;;;;;;;23.39;75.52;101213.16;7283544;19;151562;-52
2021/09/11 03:04:32;;;;;;;;;;;;;;;23.39;75.87;101215.97;7280891;19;153407;-52
2021/09/11 03:07:00;;;;;;;;;;;;;;;23.41;75.47;101215.66;7279382;19;152317;-52
2021/09/11 03:09:27;;;;;;;;;;;;;;;23.40;75.39;101217.66;7285541;19;151737;-51
2021/09/11 03:11:54;;;;;;;;;;;;;;;23.42;75.79;101220.16;7282929;19;154011;-56
2021/09/11 03:14:21;;;;;;;;;;;;;;;23.43;75.91;101230.28;7289470;19;155888;-52
2021/09/11 03:16:48;;;;;;;;;;;;;;;23.43;75.70;101233.13;7283113;19;152680;-52
2021/09/11 03:19:15;;;;;;;;;;;;;;;23.41;75.47;101227.78;7281402;19;154104;-51
2021/09/11 03:21:42;;;;;;;;;;;;;;;23.42;75.83;101234.25;7281384;19;152757;-52
2021/09/11 03:24:09;;;;;;;;;;;;;;;23.42;75.18;101237.09;7284877;19;153376;-52
2021/09/11 03:26:36;;;;;;;;;;;;;;;23.41;75.66;101238.22;7280373;19;153404;-52
2021/09/11 03:29:03;;;;;;;;;;;;;;;23.40;75.37;101226.13;7281825;19;151776;-51
2021/09/11 03:31:30;;;;;;;;;;;;;;;23.39;75.06;101232.91;7282202;19;153714;-51
2021/09/11 03:33:58;;;;;;;;;;;;;;;23.41;75.34;101229.78;7281492;19;153632;-52
2021/09/11 03:36:25;;;;;;;;;;;;;;;23.41;75.23;101227.78;7290329;19;151687;-51
2021/09/11 03:38:52;;;;;;;;;;;;;;;23.40;75.58;101240.22;7276467;19;152433;-52
2021/09/11 03:41:19;;;;;;;;;;;;;;;23.40;75.28;101234.56;7283102;19;152509;-52
2021/09/11 03:43:46;;;;;;;;;;;;;;;23.42;75.23;101223.81;7283578;19;153971;-51
2021/09/11 03:46:13;;;;;;;;;;;;;;;23.42;75.39;101234.25;7281356;19;154151;-52
2021/09/11 03:48:41;;;;;;;;;;;;;;;23.42;75.19;101232.28;7282958;19;151836;-52
2021/09/11 03:51:08;;;;;;;;;;;;;;;23.40;75.38;101225.28;7282582;19;153033;-52
2021/09/11 03:53:35;;;;;;;;;;;;;;;23.41;75.36;101222.16;7276865;19;153995;-52
2021/09/11 03:56:02;;;;;;;;;;;;;;;23.38;75.44;101224.78;7278634;19;155212;-52
2021/09/11 03:58:29;;;;;;;;;;;;;;;23.40;75.59;101228.09;7287549;19;153870;-52
2021/09/11 04:00:56;;;;;;;;;;;;;;;23.40;75.57;101225.28;7282073;19;151939;-51
2021/09/11 04:03:24;;;;;;;;;;;;;;;23.41;75.50;101221.31;7280579;19;153403;-52
2021/09/11 04:05:51;;;;;;;;;;;;;;;23.40;76.37;101226.13;7276364;19;153805;-52
2021/09/11 04:08:19;;;;;;;;;;;;;;;23.40;76.64;101234.56;7280760;19;152131;-52
2021/09/11 04:10:46;;;;;;;;;;;;;;;23.38;75.86;101234.06;7283073;19;151880;-51
2021/09/11 04:13:13;;;;;;;;;;;;;;;23.39;76.16;101230.06;7280123;19;152452;-52
2021/09/11 04:15:40;;;;;;;;;;;;;;;23.39;76.71;101232.09;7282838;19;152138;-53
2021/09/11 04:18:07;;;;;;;;;;;;;;;23.40;76.07;101239.38;7277826;19;154003;-53
2021/09/11 04:20:35;;;;;;;;;;;;;;;23.40;75.93;101239.38;7286702;19;153654;-52
2021/09/11 04:23:02;;;;;;;;;;;;;;;23.39;75.90;101241.34;7280043;19;152872;-53
2021/09/11 04:25:29;;;;;;;;;;;;;;;23.39;75.93;101243.38;7280772;19;153514;-52
2021/09/11 04:27:56;;;;;;;;;;;;;;;23.36;76.27;101250.47;7280237;19;152691;-52
2021/09/11 04:30:23;;;;;;;;;;;;;;;23.37;76.12;101245.66;7281168;19;154927;-52
2021/09/11 04:32:50;;;;;;;;;;;;;;;23.38;75.93;101247.34;7280442;19;154762;-52
2021/09/11 04:35:18;;;;;;;;;;;;;;;23.38;75.73;101247.34;7281009;19;152009;-51
2021/09/11 04:37:45;;;;;;;;;;;;;;;23.36;75.81;101247.66;7280547;19;151877;-52
2021/09/11 04:40:13;;;;;;;;;;;;;;;23.36;75.96;101244.00;7279733;19;153133;-51
2021/09/11 04:42:40;;;;;;;;;;;;;;;23.38;76.18;101247.34;7286224;19;152013;-52
2021/09/11 04:45:07;;;;;;;;;;;;;;;23.37;76.02;101245.66;7280066;19;153391;-52
2021/09/11 04:47:34;;;;;;;;;;;;;;;23.37;75.66;101246.50;7279441;19;151817;-52
2021/09/11 04:50:01;;;;;;;;;;;;;;;23.36;75.71;101253.28;7278902;19;152118;-52
2021/09/11 04:52:28;;;;;;;;;;;;;;;23.36;75.92;101249.63;7276918;19;154442;-51
2021/09/11 04:54:55;;;;;;;;;;;;;;;23.37;76.00;101254.13;7279279;19;153633;-52
2021/09/11 04:57:23;;;;;;;;;;;;;;;23.37;75.71;101254.13;7280400;19;153627;-52
2021/09/11 04:59:50;;;;;;;;;;;;;;;23.34;75.53;101252.78;7280493;19;152639;-52
2021/09/11 05:02:17;;;;;;;;;;;;;;;23.35;76.11;101259.25;7279793;19;151884;-52
2021/09/11 05:04:45;;;;;;;;;;;;;;;23.36;75.45;101261.75;7284795;19;153231;-52
2021/09/11 05:07:13;;;;;;;;;;;;;;;23.33;75.55;101259.59;7278186;19;152048;-51
2021/09/11 05:09:40;;;;;;;;;;;;;;;23.31;75.86;101255.41;7286249;19;153776;-52
2021/09/11 05:12:07;;;;;;;;;;;;;;;23.33;75.95;101255.94;7286808;19;153474;-52
2021/09/11 05:14:34;;;;;;;;;;;;;;;23.33;76.10;101258.75;7287862;19;151515;-52
2021/09/11 05:17:01;;;;;;;;;;;;;;;23.33;75.30;101256.75;7286493;19;152615;-52
2021/09/11 05:19:29;;;;;;;;;;;;;;;23.36;75.89;101273.03;7284709;19;153693;-51
2021/09/11 05:21:56;;;;;;;;;;;;;;;23.34;75.73;101266.91;7286581;19;151783;-52
2021/09/11 05:24:23;;;;;;;;;;;;;;;23.36;75.64;101269.38;7292045;19;153486;-51
2021/09/11 05:26:50;;;;;;;;;;;;;;;23.35;75.82;101270.53;7286574;19;152163;-52
2021/09/11 05:29:17;;;;;;;;;;;;;;;23.38;75.66;101270.75;7287032;19;152951;-51
2021/09/11 05:31:44;;;;;;;;;;;;;;;23.32;74.48;101274.81;7284194;19;154053;-51
2021/09/11 05:34:11;;;;;;;;;;;;;;;23.30;74.94;101284.78;7288675;19;152052;-51
2021/09/11 05:36:38;;;;;;;;;;;;;;;23.31;75.40;101284.44;7285946;19;152811;-51
2021/09/11 05:39:05;;;;;;;;;;;;;;;23.30;75.04;101296.03;7283780;19;152564;-51
2021/09/11 05:41:33;;;;;;;;;;;;;;;23.31;75.46;101290.06;7284548;19;152153;-51
2021/09/11 05:44:01;;;;;;;;;;;;;;;23.30;75.26;101298.88;7284911;19;153519;-51
2021/09/11 05:46:28;;;;;;;;;;;;;;;23.27;75.38;101291.88;7290327;19;153504;-52
2021/09/11 05:48:55;;;;;;;;;;;;;;;23.31;75.63;101297.69;7286229;19;153499;-51
2021/09/11 05:51:22;;;;;;;;;;;;;;;23.31;75.48;101298.53;7283620;19;152480;-51
2021/09/11 05:53:49;;;;;;;;;;;;;;;23.29;75.17;101300.84;7285363;19;152366;-51
2021/09/11 05:56:16;;;;;;;;;;;;;;;23.32;75.10;101300.19;7283697;19;152681;-50
2021/09/11 05:58:43;;;;;;;;;;;;;;;23.31;75.15;101308.97;7281505;19;153148;-51
2021/09/11 06:01:10;;;;;;;;;;;;;;;23.31;75.40;101306.16;7284926;19;152190;-52
2021/09/11 06:03:38;;;;;;;;;;;;;;;23.31;75.50;101318.25;7282836;19;152730;-52
2021/09/11 06:06:06;;;;;;;;;;;;;;;23.30;75.32;101305.34;7284873;19;153011;-51
2021/09/11 06:08:33;;;;;;;;;;;;;;;23.31;75.41;101309.81;7287171;19;151948;-52
2021/09/11 06:11:00;;;;;;;;;;;;;;;23.32;75.31;101313.47;7285673;19;153552;-51
2021/09/11 06:13:27;;;;;;;;;;;;;;;23.31;75.35;101318.25;7284258;19;152090;-51
2021/09/11 06:15:54;;;;;;;;;;;;;;;23.32;75.11;101313.47;7285124;19;153485;-51
2021/09/11 06:18:22;;;;;;;;;;;;;;;23.30;75.29;101319.44;7281429;19;153235;-52
2021/09/11 06:20:49;;;;;;;;;;;;;;;23.29;75.52;101329.03;7286530;19;151766;-51
2021/09/11 06:23:16;;;;;;;;;;;;;;;23.29;75.67;101333.84;7285091;19;152885;-51
2021/09/11 06:25:43;;;;;;;;;;;;;;;23.28;75.38;101330.19;7284362;19;153386;-52
2021/09/11 06:28:10;;;;;;;;;;;;;;;23.29;75.36;101337.50;7285989;19;151879;-51
2021/09/11 06:30:37;;;;;;;;;;;;;;;23.27;75.42;101336.97;7289704;19;152775;-52
2021/09/11 06:33:04;;;;;;;;;;;;;;;23.27;75.36;101339.78;7280667;19;152028;-52
2021/09/11 06:35:31;;;;;;;;;;;;;;;23.30;75.36;101343.97;7286332;19;152816;-52
2021/09/11 06:37:58;;;;;;;;;;;;;;;23.29;75.46;101339.50;7283749;19;153651;-52
2021/09/11 06:40:25;;;;;;;;;;;;;;;23.27;75.43;101344.59;7284401;19;153207;-52
2021/09/11 06:42:52;;;;;;;;;;;;;;;23.27;75.07;101347.41;7282629;19;153310;-52
2021/09/11 06:45:20;;;;;;;;;;;;;;;23.28;75.25;101352.75;7283827;19;153527;-52
2021/09/11 06:47:47;;;;;;;;;;;;;;;23.27;75.18;101351.06;7284733;19;152064;-51
2021/09/11 06:50:14;;;;;;;;;;;;;;;23.27;75.32;101355.88;7287453;19;152793;-52
2021/09/11 06:52:41;;;;;;;;;;;;;;;23.27;74.93;101353.91;7291023;19;153483;-51
2021/09/11 06:55:09;;;;;;;;;;;;;;;23.27;74.86;101355.88;7282111;19;152850;-52
2021/09/11 06:57:38;;;;;;;;;;;;;;;23.26;74.90;101363.50;7284492;19;153193;-52
2021/09/11 07:00:06;;;;;;;;;;;;;;;23.27;74.97;101361.50;7282353;19;151926;-51
2021/09/11 07:02:33;;;;;;;;;;;;;;;23.27;75.38;101368.00;7280997;19;152336;-52
2021/09/11 07:05:01;;;;;;;;;;;;;;;23.25;74.94;101373.13;7282450;19;154425;-51
2021/09/11 07:07:28;;;;;;;;;;;;;;;23.24;75.30;101370.63;7282068;19;151947;-53
2021/09/11 07:09:55;;;;;;;;;;;;;;;23.27;75.21;101376.44;7278020;19;153653;-52
2021/09/11 07:12:23;;;;;;;;;;;;;;;23.27;74.99;101372.78;7281833;19;154315;-52
2021/09/11 07:14:50;;;;;;;;;;;;;;;23.23;75.08;101375.41;7290964;19;152296;-52
2021/09/11 07:17:17;;;;;;;;;;;;;;;23.24;74.92;101374.28;7279972;19;152503;-52
2021/09/11 07:19:44;;;;;;;;;;;;;;;23.23;74.93;101374.59;7281166;19;151835;-51
2021/09/11 07:22:11;;;;;;;;;;;;;;;23.24;75.12;101379.91;7284699;19;153573;-51
2021/09/11 07:24:38;;;;;;;;;;;;;;;23.25;75.73;101383.56;7282359;19;153784;-52
2021/09/11 07:27:06;;;;;;;;;;;;;;;23.26;75.61;101380.41;7283340;19;152422;-52
2021/09/11 07:29:34;;;;;;;;;;;;;;;23.29;75.24;101376.16;7280023;19;152310;-52
2021/09/11 07:32:10;;;;;;;;;;;;;;;23.27;75.79;101384.91;7282330;19;153982;-52
2021/09/11 07:34:38;;;;;;;;;;;;;;;23.26;75.56;101388.88;7292698;19;152658;-52
2021/09/11 07:37:05;;;;;;;;;;;;;;;23.25;75.31;101392.88;7283733;19;153333;-53
2021/09/11 07:39:32;;;;;;;;;;;;;;;23.25;75.40;101395.69;7283276;19;151749;-52
2021/09/11 07:41:59;;;;;;;;;;;;;;;23.23;75.27;101397.13;7281642;19;154302;-52
2021/09/11 07:44:26;;;;;;;;;;;;;;;23.25;75.47;101395.69;7283486;19;154252;-52
2021/09/11 07:46:53;;;;;;;;;;;;;;;23.26;75.38;101397.34;7282683;19;151995;-52
2021/09/11 07:49:20;;;;;;;;;;;;;;;23.27;75.18;101406.63;7284797;19;153182;-51
2021/09/11 07:51:47;;;;;;;;;;;;;;;23.26;75.09;101402.16;7283202;19;153159;-52
2021/09/11 07:54:18;;;;;;;;;;;;;;;23.26;74.84;101405.78;7280663;19;152122;-51
2021/09/11 07:56:48;;;;;;;;;;;;;;;23.26;75.29;101417.06;7289132;19;152054;-52
2021/09/11 07:59:16;;;;;;;;;;;;;;;23.26;75.11;101416.25;7282569;19;151792;-52
2021/09/11 08:01:43;;;;;;;;;;;;;;;23.25;75.06;101420.22;7281523;19;152307;-51
2021/09/11 08:04:10;;;;;;;;;;;;;;;23.26;75.01;101416.25;7283085;19;153346;-51
2021/09/11 08:06:39;;;;;;;;;;;;;;;23.26;74.58;101419.09;7284150;19;151955;-51
2021/09/11 08:09:06;;;;;;;;;;;;;;;23.24;74.96;101427.84;7282989;19;153549;-51
2021/09/11 08:11:34;;;;;;;;;;;;;;;23.23;74.73;101430.97;7276752;19;154485;-51
2021/09/11 08:14:02;;;;;;;;;;;;;;;23.22;74.92;101438.59;7283854;19;151933;-52
2021/09/11 08:16:29;;;;;;;;;;;;;;;23.25;74.96;101442.78;7283095;19;152412;-51
2021/09/11 08:18:57;;;;;;;;;;;;;;;23.27;75.05;101444.13;7288299;19;155350;-52
2021/09/11 08:21:24;;;;;;;;;;;;;;;23.27;74.85;101443.28;7283712;19;151847;-51
2021/09/11 08:23:52;;;;;;;;;;;;;;;23.27;74.91;101443.28;7281437;19;153423;-52
2021/09/11 08:26:20;;;;;;;;;;;;;;;23.23;75.04;101445.91;7281393;19;151995;-51
2021/09/11 08:28:48;;;;;;;;;;;;;;;23.22;74.75;101438.59;7282078;19;153376;-52
2021/09/11 08:31:16;;;;;;;;;;;;;;;23.25;75.15;101454.06;7281549;19;154269;-52
2021/09/11 08:33:43;;;;;;;;;;;;;;;23.24;74.95;101450.41;7280423;19;152023;-52
2021/09/11 08:36:10;;;;;;;;;;;;;;;23.23;75.00;101453.53;7283014;19;154278;-52
2021/09/11 08:38:40;;;;;;;;;;;;;;;23.25;74.77;101457.72;7282005;19;154300;-52
2021/09/11 08:41:08;;;;;;;;;;;;;;;23.25;74.92;101460.53;7292351;19;152012;-52
2021/09/11 08:43:35;;;;;;;;;;;;;;;23.27;74.76;101466.69;7288427;19;153884;-52
2021/09/11 08:46:02;;;;;;;;;;;;;;;23.29;75.27;101470.03;7286742;19;152178;-53
2021/09/11 08:48:30;;;;;;;;;;;;;;;23.33;75.44;101467.41;7286811;19;155102;-52
2021/09/11 08:50:57;;;;;;;;;;;;;;;23.32;75.67;101471.38;7288665;19;152341;-52
2021/09/11 08:53:29;;;;;;;;;;;;;;;22.93;70.01;101475.56;7283584;19;151991;-51
2021/09/11 08:55:57;;;;;;;;;;;;;;;22.79;69.84;101482.34;7289286;19;153785;-51
2021/09/11 08:58:24;;;;;;;;;;;;;;;22.62;69.63;101489.34;7288828;19;153624;-51
2021/09/11 09:00:52;;;;;;;;;;;;;;;22.41;70.25;101490.03;7287325;19;151974;-51
2021/09/11 09:03:22;;;;;;;;;;;;;;;22.34;70.60;101486.78;7292652;19;152038;-52
2021/09/11 09:05:50;;;;;;;;;;;;;;;22.24;71.26;101487.78;7289508;19;151901;-52
2021/09/11 09:08:20;;;;;;;;;;;;;;;22.22;71.37;101489.22;7286439;19;152121;-52
2021/09/11 09:10:47;;;;;;;;;;;;;;;22.05;71.73;101498.22;7281828;19;154104;-51
2021/09/11 09:13:15;;;;;;;;;;;;;;;22.04;71.77;101502.16;7286389;19;151719;-52
2021/09/11 09:15:42;;;;;;;;;;;;;;;21.88;72.65;101506.34;7288046;19;152908;-51
2021/09/11 09:18:13;;;;;;;;;;;;;;;21.88;72.38;101497.91;7286534;19;153600;-52
2021/09/11 09:20:40;;;;;;;;;;;;;;;21.85;73.17;101501.34;7286722;19;151669;-51
2021/09/11 09:23:08;;;;;;;;;;;;;;;21.70;73.64;101508.84;7287067;19;155451;-51
2021/09/11 09:25:36;;;;;;;;;;;;;;;21.76;72.62;101509.59;7294587;19;152144;-52
2021/09/11 09:28:09;;;;;;;;;;;;;;;21.73;73.10;101496.97;7286271;19;153234;-52
2021/09/11 09:30:39;;;;;;;;;;;;;;;21.69;73.29;101503.53;7283178;19;152971;-51
2021/09/11 09:33:07;;;;;;;;;;;;;;;21.56;73.95;101498.63;7285378;19;151937;-51
2021/09/11 09:35:35;;;;;;;;;;;;;;;21.52;74.49;101495.59;7286933;19;153478;-52
2021/09/11 09:38:06;;;;;;;;;;;;;;;21.31;75.62;101497.00;7285395;19;153467;-51
2021/09/11 09:40:34;;;;;;;;;;;;;;;21.34;75.58;101499.22;7284896;19;152119;-52
2021/09/11 09:43:04;;;;;;;;;;;;;;;21.38;75.22;101488.19;7287502;19;153403;-52
2021/09/11 09:45:32;;;;;;;;;;;;;;;21.39;75.16;101492.69;7294148;19;153453;-51
2021/09/11 09:48:00;;;;;;;;;;;;;;;21.39;75.13;101490.72;7286426;19;152741;-52
2021/09/11 09:50:30;;;;;;;;;;;;;;;21.30;75.59;101486.91;7285583;19;153748;-51
2021/09/11 09:52:58;;;;;;;;;;;;;;;21.40;74.97;101486.75;7283644;19;151598;-52
2021/09/11 09:55:32;;;;;;;;;;;;;;;21.43;75.17;101483.34;7283137;19;152878;-52
2021/09/11 09:58:15;;;;;;;;;;;;;;;21.37;75.24;101492.16;7280014;19;152370;-52
2021/09/11 10:01:27;;;;;;;;;;;;;;;21.45;74.90;101492.31;7274245;19;154019;-52
2021/09/11 10:04:27;;;;;;;;;;;;;;;21.42;75.67;101490.09;7278310;19;152164;-52
2021/09/11 10:07:34;;;;;;;;;;;;;;;21.47;74.90;101486.41;7281889;19;152962;-52
2021/09/11 10:10:33;;;;;;;;;;;;;;;21.49;74.67;101487.75;7288131;19;151973;-52
2021/09/11 10:13:41;;;;;;;;;;;;;;;21.49;74.05;101489.72;7280233;19;152918;-51
2021/09/11 10:16:34;;;;;;;;;;;;;;;21.59;72.80;101492.41;7279088;19;152472;-52
2021/09/11 10:19:16;;;;;;;;;;;;;;;21.69;72.97;101497.88;7281331;19;152259;-53
2021/09/11 10:22:24;;;;;;;;;;;;;;;21.74;72.27;101486.56;7279534;19;158398;-52
2021/09/11 10:25:01;;;;;;;;;;;;;;;21.73;71.89;101488.53;7285441;19;152486;-52
2021/09/11 10:27:38;;;;;;;;;;;;;;;21.76;71.10;101483.47;7287290;19;154037;-51
2021/09/11 10:30:12;;;;;;;;;;;;;;;21.80;70.72;101478.91;7284803;19;155281;-52
2021/09/11 10:32:49;;;;;;;;;;;;;;;21.82;70.95;101479.41;7285564;19;151921;-53
2021/09/11 10:35:22;;;;;;;;;;;;;;;21.88;69.95;101478.22;7292676;19;152753;-52
2021/09/11 10:37:59;;;;;;;;;;;;;;;21.93;69.47;101469.72;7286188;19;151928;-52
2021/09/11 10:40:32;;;;;;;;;;;;;;;21.95;69.50;101468.25;7285021;19;152995;-52
2021/09/11 10:42:58;;;;;;;;;;;;;;;22.00;69.17;101471.00;7283158;19;153120;-52
2021/09/11 10:45:38;;;;;;;;;;;;;;;22.02;69.41;101473.53;7285305;19;151915;-53
2021/09/11 10:48:06;;;;;;;;;;;;;;;22.04;68.98;101469.25;7284882;19;153387;-53
2021/09/11 10:50:39;;;;;;;;;;;;;;;22.06;68.68;101474.56;7283013;19;154750;-52
2021/09/11 10:53:23;;;;;;;;;;;;;;;22.09;68.51;101465.50;7285468;19;152586;-52
2021/09/11 10:55:51;;;;;;;;;;;;;;;22.14;68.66;101473.88;7283614;19;153728;-52
2021/09/11 10:58:29;;;;;;;;;;;;;;;22.13;67.97;101473.03;7290445;19;153187;-52
2021/09/11 11:00:57;;;;;;;;;;;;;;;22.16;68.28;101477.22;7284879;19;153024;-53
2021/09/11 11:03:24;;;;;;;;;;;;;;;22.15;66.90;101467.94;7283506;19;153995;-52
2021/09/11 11:06:01;;;;;;;;;;;;;;;22.19;66.94;101468.16;7285044;19;152041;-52
2021/09/11 11:08:32;;;;;;;;;;;;;;;22.24;66.59;101470.06;7284563;19;152065;-53
2021/09/11 11:11:05;;;;;;;;;;;;;;;22.30;66.69;101466.03;7284059;19;153697;-52
2021/09/11 11:13:31;;;;;;;;;;;;;;;22.40;67.03;101474.25;7279480;19;152197;-52
2021/09/11 11:15:58;;;;;;;;;;;;;;;22.48;67.70;101476.41;7286353;19;152780;-55
2021/09/11 11:18:28;;;;;;;;;;;;;;;22.59;67.43;101484.34;7283769;19;154145;-51
2021/09/11 11:20:55;;;;;;;;;;;;;;;22.67;67.43;101482.78;7290218;19;151840;-51
2021/09/11 11:23:23;;;;;;;;;;;;;;;22.70;67.53;101482.22;7283218;19;152729;-51
2021/09/11 11:25:51;;;;;;;;;;;;;;;22.72;67.36;101474.28;7281265;19;152261;-51
2021/09/11 11:28:21;;;;;;;;;;;;;;;22.72;67.52;101485.53;7283250;19;151881;-51
2021/09/11 11:30:50;;;;;;;;;;;;;;;22.72;67.59;101465.81;7282609;19;153310;-51
2021/09/11 11:33:17;;;;;;;;;;;;;;;22.73;67.68;101472.28;7284473;19;152807;-51
2021/09/11 11:35:43;;;;;;;;;;;;;;;22.71;67.65;101474.59;7281351;19;152575;-51
2021/09/11 11:38:10;;;;;;;;;;;;;;;22.68;67.32;101480.81;7281199;19;153863;-51
2021/09/11 11:40:37;;;;;;;;;;;;;;;22.66;67.44;101469.88;7290838;19;152093;-51
2021/09/11 11:43:05;;;;;;;;;;;;;;;22.65;67.56;101478.63;7283525;19;153949;-51
2021/09/11 11:45:33;;;;;;;;;;;;;;;22.63;67.72;101476.09;7284328;19;151905;-51
2021/09/11 11:48:07;;;;;;;;;;;;;;;22.61;67.34;101476.44;7283229;19;152842;-51
2021/09/11 11:50:37;;;;;;;;;;;;;;;22.64;67.48;101474.97;7282159;19;154215;-51
2021/09/11 11:53:08;;;;;;;;;;;;;;;22.72;66.79;101476.25;7282289;19;151839;-51
2021/09/11 11:55:36;;;;;;;;;;;;;;;22.77;66.72;101478.97;7281401;19;153745;-51
2021/09/11 11:58:10;;;;;;;;;;;;;;;22.86;66.59;101477.09;7282570;19;152406;-51
2021/09/11 12:00:43;;;;;;;;;;;;;;;22.83;66.58;101486.19;7283447;19;151816;-50
2021/09/11 12:03:29;;;;;;;;;;;;;;;22.88;66.38;101489.75;7287942;19;152686;-50
2021/09/11 12:05:56;;;;;;;;;;;;;;;22.91;66.49;101477.84;7282414;19;151605;-51
2021/09/11 12:08:24;;;;;;;;;;;;;;;22.93;66.33;101483.19;7282159;19;153381;-51
2021/09/11 12:10:52;;;;;;;;;;;;;;;22.95;66.04;101478.06;7282800;19;153940;-50
2021/09/11 12:13:20;;;;;;;;;;;;;;;22.96;66.02;101466.47;7279900;19;151864;-51
2021/09/11 12:15:48;;;;;;;;;;;;;;;22.96;66.17;101466.47;7287464;19;153752;-51
2021/09/11 12:18:16;;;;;;;;;;;;;;;22.96;66.02;101460.84;7296239;19;152980;-51
2021/09/11 12:20:43;;;;;;;;;;;;;;;22.98;65.44;101467.03;7294737;19;152431;-51
2021/09/11 12:23:20;;;;;;;;;;;;;;;22.96;65.92;101457.19;7296553;19;153352;-51
2021/09/11 12:25:53;;;;;;;;;;;;;;;22.97;65.85;101456.88;7303549;19;152655;-51
2021/09/11 12:28:41;;;;;;;;;;;;;;;22.98;65.52;101461.38;7296612;19;154055;-51
2021/09/11 12:31:10;;;;;;;;;;;;;;;23.03;65.59;101455.63;7295013;19;153124;-51
2021/09/11 12:33:41;;;;;;;;;;;;;;;23.04;65.28;101457.28;7297301;19;152097;-51
2021/09/11 12:36:22;;;;;;;;;;;;;;;23.07;64.86;101453.03;7295738;19;151946;-51